Airfield :
LOGIN :

Register | Disclaimer

   EN    FR    IT 

 










Legend :    VFR   Marginal VFR   IFR   Intensive IFR   Very Intensive IFR
Visi :
Ceiling :
>= 8 km
>= 3000ft
5 to 8 km
1000 to 3000 ft
1500m to 5 km
500 to 1000 ft
800 to 1500m
200 to 500 ft
< 800m
< 200 ft
Symbols :   Thunderstorms  Fog  Heavy snow  Heavy precipitations  Wind > 20 kt
SIGMETs :     Misc.  Thunderstorms  Icing  Turbulence  Mountain Waves  Volcanic Ashes






- Airport Elevation : 313 ft
- IATA code : LEH


LFOH - Le Havre Octeville

CURRENT METAR :
  • 191300Z AUTO 22009KT 190V250 9999 FEW025 15/09 Q1003 TEMPO BKN025CB

EXPIRED METARs :
  • 191230Z AUTO 23011KT CAVOK 15/09 Q1003 TEMPO BKN025CB
  • 191200Z AUTO 23013KT CAVOK 14/10 Q1003 TEMPO BKN025CB
  • 191130Z AUTO 23012KT 9999 FEW014 14/10 Q1003 TEMPO BKN025CB
  • 191100Z AUTO 23011KT 190V250 9999 FEW014 14/10 Q1003 TEMPO 21016G26KT 4000 SHRA BKN025CB
  • 191030Z AUTO 22011KT 9999 FEW014 SCT210 13/10 Q1003 TEMPO 21016G26KT 4000 SHRA BKN025CB

TAF TAF LFOH
Valid from the 19 at 12:00 until the 20 at 12:00 UTC


191100Z 1912/2012 22012KT 9999 SCT025
PROB40
TEMPO 1912/1918 BKN025CB
BECMG 1918/1920 VRB02KT
PROB40 1923/2006 3000 BR
BECMG 2009/2012 04010KT
ATIS : +33 2 35 54 64 93



MET'MAP, your aeronautical weather chart ! - Copyright ORBIFLY December 2007 - Disclaimer

ORBIFLY MET'MAP TEAM :

Programming & Development : Alexandra Zaïnal
Concept & Development : Baudouin d'Aumeries
Co-Development & Prog : Marc-Olivier Méhu
Technical & hardware support : Manuel Goepfert

Contact : metmap@orbifly.com




SOURCES & CREDITS :

   NOAA